Time;durP1;ratioP1;P1;durP2;ratioP2;P2;SDS_P1;SDS_P2;PMS_P1;PMS_P2;Temp;Humidity;BMP_temperature;BMP_pressure;BME280_temperature;BME280_humidity;BME280_pressure;Samples;Min_cycle;Max_cycle;Signal;HPM_P1;HPM_P2
2022/04/19 00:00:51;;;;;;;52.90;37.37;;;;;;;36.32;45.55;100986.00;5090611;28;20494;-71
2022/04/19 00:03:18;;;;;;;58.50;38.10;;;;;;;36.45;44.75;100984.50;5090601;28;20428;-69
2022/04/19 00:05:45;;;;;;;41.33;35.07;;;;;;;36.57;44.84;100976.75;5091709;28;20437;-68
2022/04/19 00:08:13;;;;;;;55.47;35.97;;;;;;;36.69;44.16;100977.09;5090525;28;20494;-71
2022/04/19 00:10:40;;;;;;;51.27;36.13;;;;;;;36.68;44.13;100975.50;5090441;28;20507;-68
2022/04/19 00:13:09;;;;;;;60.83;44.80;;;;;;;36.42;44.43;100982.38;5073690;28;20472;-70
2022/04/19 00:15:38;;;;;;;53.73;40.47;;;;;;;36.40;45.34;100977.28;5090376;28;20444;-71
2022/04/19 00:18:09;;;;;;;67.87;44.47;;;;;;;36.47;44.98;100956.09;5091629;28;20513;-70
2022/04/19 00:20:35;;;;;;;56.60;42.50;;;;;;;36.53;44.60;100956.84;5090420;28;20420;-71
2022/04/19 00:23:03;;;;;;;53.07;39.50;;;;;;;36.29;45.37;100959.59;5090264;28;20490;-69
2022/04/19 00:25:29;;;;;;;47.90;41.20;;;;;;;36.19;45.51;100973.22;5092079;28;20441;-71
2022/04/19 00:27:55;;;;;;;48.70;38.77;;;;;;;36.24;45.06;100965.84;5094161;28;20417;-71
2022/04/19 00:30:21;;;;;;;48.60;41.03;;;;;;;36.26;45.39;100970.97;5077243;28;20451;-68
2022/04/19 00:32:47;;;;;;;53.53;40.07;;;;;;;36.06;45.41;100977.44;5094227;28;20421;-68
2022/04/19 00:35:13;;;;;;;57.27;40.10;;;;;;;36.01;46.44;100966.72;5093860;28;20463;-69
2022/04/19 00:37:40;;;;;;;49.60;39.20;;;;;;;35.94;45.81;100967.06;5095444;28;20461;-71
2022/04/19 00:40:08;;;;;;;44.87;36.67;;;;;;;35.97;45.36;100963.81;5093890;28;20425;-71
2022/04/19 00:42:36;;;;;;;47.13;36.97;;;;;;;36.15;45.68;100973.00;5095204;28;20492;-70
2022/04/19 00:45:05;;;;;;;55.87;37.00;;;;;;;36.37;45.26;100972.44;5093914;28;20468;-71
2022/04/19 00:47:32;;;;;;;51.67;36.83;;;;;;;36.50;44.72;100966.31;5095104;28;20908;-71
2022/04/19 00:50:03;;;;;;;48.13;37.77;;;;;;;36.55;44.72;100970.84;5094085;28;20431;-69
2022/04/19 00:52:31;;;;;;;52.40;38.87;;;;;;;36.64;44.32;100973.66;5093617;28;20432;-69
2022/04/19 00:54:59;;;;;;;61.50;42.33;;;;;;;36.74;44.68;100971.63;5093519;28;20518;-69
2022/04/19 00:57:26;;;;;;;49.50;37.57;;;;;;;36.68;44.81;100975.50;5095057;28;20403;-69
2022/04/19 00:59:57;;;;;;;56.80;39.10;;;;;;;36.69;44.29;100977.09;5093695;28;20412;-70
2022/04/19 01:02:24;;;;;;;67.80;43.80;;;;;;;36.63;44.22;100972.88;5076837;28;20412;-71
2022/04/19 01:04:51;;;;;;;56.77;42.50;;;;;;;36.53;44.72;100971.13;5093556;28;20404;-69
2022/04/19 01:07:21;;;;;;;50.90;39.97;;;;;;;36.52;44.84;100966.84;5093550;28;20405;-69
2022/04/19 01:09:48;;;;;;;66.57;42.73;;;;;;;36.48;45.41;100959.59;5093327;28;20424;-70
2022/04/19 01:15:06;;;;;;;59.17;42.50;;;;;;;36.28;45.08;100953.38;5094704;28;20502;-71
2022/04/19 01:17:35;;;;;;;58.83;41.80;;;;;;;36.24;45.06;100946.16;5093099;28;20416;-70
2022/04/19 01:20:03;;;;;;;53.70;43.17;;;;;;;36.22;45.43;100943.75;5093228;28;20421;-69
2022/04/19 01:22:40;;;;;;;59.33;46.23;;;;;;;36.23;45.27;100942.66;5093062;28;20420;-71
2022/04/19 01:25:08;;;;;;;62.33;50.00;;;;;;;36.18;45.96;100942.72;5093133;28;20865;-71
2022/04/19 01:27:34;;;;;;;64.67;50.40;;;;;;;36.19;45.60;100943.50;5094494;28;20421;-70
2022/04/19 01:30:05;;;;;;;65.60;51.43;;;;;;;36.05;46.42;100940.75;5092860;28;20451;-69
2022/04/19 01:32:31;;;;;;;73.20;54.43;;;;;;;36.11;46.09;100934.19;5093072;28;20441;-69
2022/04/19 01:35:09;;;;;;;70.07;53.27;;;;;;;36.22;45.95;100926.75;5092803;28;20475;-68
2022/04/19 01:37:36;;;;;;;72.90;55.33;;;;;;;36.24;45.78;100925.34;5092482;28;20427;-69
2022/04/19 01:40:16;;;;;;;68.73;52.17;;;;;;;36.27;46.13;100922.03;5092948;28;20475;-71
2022/04/19 01:42:58;;;;;;;68.43;55.93;;;;;;;36.13;46.26;100923.09;5094065;28;20471;-71
2022/04/19 01:45:30;;;;;;;83.63;56.80;;;;;;;35.82;47.31;100922.66;5092644;28;20445;-71
2022/04/19 01:47:57;;;;;;;67.03;54.17;;;;;;;35.94;46.86;100915.78;5092612;28;20498;-69
2022/04/19 01:50:27;;;;;;;63.83;52.73;;;;;;;36.09;46.97;100916.66;5092611;28;20421;-71
2022/04/19 01:52:56;;;;;;;67.17;55.77;;;;;;;36.20;46.10;100912.72;5092497;28;20587;-69
2022/04/19 01:55:22;;;;;;;61.33;54.57;;;;;;;36.20;46.63;100907.31;5092357;28;20479;-69
2022/04/19 01:57:57;;;;;;;63.10;53.20;;;;;;;36.28;45.81;100910.16;5092392;28;20449;-71
2022/04/19 02:00:25;;;;;;;66.67;51.07;;;;;;;36.38;46.35;100919.19;5092674;28;20420;-68
2022/04/19 02:02:55;;;;;;;61.63;51.23;;;;;;;36.46;45.47;100913.16;5092263;28;20451;-71
2022/04/19 02:05:21;;;;;;;70.80;55.60;;;;;;;36.36;46.17;100916.00;5093756;28;20389;-70
2022/04/19 02:07:47;;;;;;;84.17;57.40;;;;;;;36.19;46.45;100909.22;5092066;28;20448;-69
2022/04/19 02:10:16;;;;;;;77.60;59.40;;;;;;;36.12;46.49;100913.38;5093666;28;20531;-70
2022/04/19 02:12:42;;;;;;;84.00;61.30;;;;;;;36.03;47.02;100914.03;5091948;28;20452;-71
2022/04/19 02:15:09;;;;;;;76.07;60.60;;;;;;;36.11;46.83;100911.78;5093504;28;20443;-71
2022/04/19 02:17:46;;;;;;;73.40;59.10;;;;;;;36.18;46.50;100912.22;5091928;28;20424;-71
2022/04/19 02:20:13;;;;;;;82.30;57.80;;;;;;;36.37;46.12;100909.50;5093492;28;20449;-71
2022/04/19 02:22:40;;;;;;;76.40;62.07;;;;;;;36.49;45.87;100917.97;5091951;28;20908;-71
2022/04/19 02:25:07;;;;;;;64.57;56.07;;;;;;;36.58;45.84;100908.09;5092016;28;20442;-70
2022/04/19 02:27:33;;;;;;;69.47;57.03;;;;;;;36.62;45.44;100916.41;5092045;28;20518;-69
2022/04/19 02:30:04;;;;;;;62.83;54.07;;;;;;;36.68;45.09;100899.00;5090728;28;20428;-71
2022/04/19 02:32:34;;;;;;;77.93;56.47;;;;;;;36.68;45.20;100902.53;5090628;28;20995;-71
2022/04/19 02:35:00;;;;;;;68.00;54.20;;;;;;;36.67;45.62;100903.63;5093069;28;20445;-71
2022/04/19 02:37:28;;;;;;;65.20;50.97;;;;;;;36.68;45.05;100894.41;5091588;28;20500;-69
2022/04/19 02:39:54;;;;;;;62.10;54.47;;;;;;;36.66;44.88;100888.50;5091785;28;20421;-71
2022/04/19 02:42:20;;;;;;;63.83;52.40;;;;;;;36.66;45.14;100893.91;5074550;28;20465;-71
2022/04/19 02:44:46;;;;;;;67.73;49.63;;;;;;;36.68;45.49;100886.31;5091902;28;21183;-69
2022/04/19 02:47:15;;;;;;;65.33;50.33;;;;;;;36.68;44.93;100897.13;5091571;28;20420;-71
2022/04/19 02:49:41;;;;;;;67.43;51.50;;;;;;;36.66;44.88;100899.31;5090896;28;20924;-71
2022/04/19 02:52:07;;;;;;;54.07;46.70;;;;;;;36.62;44.72;100890.19;5091823;28;20423;-71
2022/04/19 02:54:33;;;;;;;58.67;49.00;;;;;;;36.59;44.86;100894.31;5091284;28;20851;-71
2022/04/19 02:56:59;;;;;;;61.40;47.30;;;;;;;36.57;44.86;100892.97;5091520;28;20457;-71
2022/04/19 02:59:25;;;;;;;62.30;47.50;;;;;;;36.53;45.61;100897.38;5091573;28;20513;-71
2022/04/19 03:01:51;;;;;;;58.30;44.97;;;;;;;36.51;45.65;100894.16;5091641;28;20463;-71
2022/04/19 03:04:20;;;;;;;58.93;49.07;;;;;;;36.52;45.55;100890.34;5091278;28;20413;-71
2022/04/19 03:06:47;;;;;;;51.93;41.80;;;;;;;36.51;45.39;100886.06;5074661;28;20451;-70
2022/04/19 03:09:13;;;;;;;59.23;43.00;;;;;;;36.46;45.42;100886.13;5057926;28;20429;-70
2022/04/19 03:11:39;;;;;;;56.40;45.57;;;;;;;36.46;45.37;100886.13;5074376;28;20423;-69
2022/04/19 03:14:06;;;;;;;55.20;42.70;;;;;;;36.45;45.78;100892.63;5092419;28;20453;-71
2022/04/19 03:16:33;;;;;;;61.03;43.60;;;;;;;36.47;45.46;100888.56;5091133;28;20448;-71
2022/04/19 03:18:59;;;;;;;63.97;41.23;;;;;;;36.51;45.53;100894.16;5090839;28;20445;-70
2022/04/19 03:21:25;;;;;;;69.27;41.60;;;;;;;36.53;45.37;100900.09;5092346;28;20436;-70
2022/04/19 03:29:20;;;;;;;55.67;41.07;;;;;;;36.58;45.61;100906.19;5092260;28;20463;-71
2022/04/19 03:31:46;;;;;;;57.33;40.47;;;;;;;36.61;45.71;100901.31;5090951;28;20908;-70
2022/04/19 03:34:12;;;;;;;56.37;38.80;;;;;;;36.63;45.79;100910.72;5090739;28;20461;-71
2022/04/19 03:36:38;;;;;;;58.60;33.87;;;;;;;36.63;45.19;100905.31;5092111;28;20495;-71
2022/04/19 03:39:04;;;;;;;42.90;31.17;;;;;;;36.63;45.14;100905.31;5090841;28;20413;-69
2022/04/19 03:41:31;;;;;;;42.50;27.60;;;;;;;36.64;45.37;100903.41;5091016;28;20421;-70
2022/04/19 03:43:57;;;;;;;46.50;27.40;;;;;;;36.63;45.34;100899.09;5090788;28;20445;-69
2022/04/19 03:46:23;;;;;;;42.20;25.37;;;;;;;36.65;45.55;100907.69;5090652;28;20801;-69
2022/04/19 03:48:49;;;;;;;40.90;23.33;;;;;;;36.70;45.00;100905.72;5090995;28;20926;-69
2022/04/19 03:51:15;;;;;;;42.83;24.43;;;;;;;36.71;45.19;100906.53;5090731;28;20405;-69
2022/04/19 03:53:41;;;;;;;32.23;22.03;;;;;;;36.73;45.46;100904.34;5090148;28;20490;-69
2022/04/19 03:56:07;;;;;;;47.20;24.00;;;;;;;36.74;45.28;100906.75;5090926;28;20982;-69
2022/04/19 03:58:33;;;;;;;34.87;20.33;;;;;;;36.77;45.36;100913.44;5091721;28;20947;-69
2022/04/19 04:01:00;;;;;;;30.97;18.17;;;;;;;36.82;45.49;100918.75;5093774;28;20420;-70
2022/04/19 04:03:27;;;;;;;26.70;19.30;;;;;;;36.83;44.86;100915.78;5094796;28;20418;-69
2022/04/19 04:05:55;;;;;;;23.73;15.37;;;;;;;36.90;44.92;100918.13;5094676;28;20428;-69
2022/04/19 04:08:22;;;;;;;23.73;15.23;;;;;;;36.89;44.74;100908.38;5094740;28;20432;-69
2022/04/19 04:10:48;;;;;;;27.23;15.60;;;;;;;36.90;44.68;100910.03;5077688;28;20856;-69
2022/04/19 04:13:14;;;;;;;28.87;13.60;;;;;;;36.95;44.81;100915.31;5094530;28;20421;-69
2022/04/19 04:15:40;;;;;;;22.83;17.33;;;;;;;37.00;44.76;100917.13;5094602;28;20408;-71
2022/04/19 04:18:08;;;;;;;21.80;14.47;;;;;;;37.01;44.81;100916.03;5094444;28;20434;-71
2022/04/19 04:20:34;;;;;;;29.13;14.63;;;;;;;37.04;44.22;100910.84;5094500;28;20421;-69
2022/04/19 04:23:00;;;;;;;24.70;13.50;;;;;;;37.04;44.81;100921.66;5094289;28;20416;-69
2022/04/19 04:25:26;;;;;;;27.97;12.80;;;;;;;37.06;44.16;100924.84;5094418;28;20454;-69
2022/04/19 04:27:53;;;;;;;22.57;16.00;;;;;;;37.05;44.53;100914.34;5095630;28;20432;-70
2022/04/19 04:30:19;;;;;;;27.17;15.03;;;;;;;37.04;44.73;100918.16;5094201;28;20413;-69
2022/04/19 04:32:45;;;;;;;29.67;16.17;;;;;;;37.01;44.74;100918.72;5094541;28;20499;-70
2022/04/19 04:35:11;;;;;;;30.57;20.37;;;;;;;37.00;44.73;100920.63;5077082;28;21018;-71
2022/04/19 04:37:37;;;;;;;24.07;15.67;;;;;;;37.04;45.00;100929.75;5095425;28;20409;-70
2022/04/19 04:40:04;;;;;;;32.07;18.57;;;;;;;37.03;45.07;100920.06;5094003;28;20421;-70
2022/04/19 04:42:30;;;;;;;27.90;15.73;;;;;;;37.02;44.45;100923.06;5095275;28;20401;-69
2022/04/19 04:44:56;;;;;;;31.77;14.33;;;;;;;37.03;44.50;100924.66;5093980;28;20433;-71
2022/04/19 04:50:09;;;;;;;21.53;13.03;;;;;;;37.09;44.14;100923.47;5095257;28;20389;-70
2022/04/19 04:52:35;;;;;;;20.50;12.90;;;;;;;37.04;44.09;100923.56;5093764;28;20507;-70
2022/04/19 04:55:01;;;;;;;29.70;13.87;;;;;;;37.02;44.29;100921.16;5094749;28;20464;-70
2022/04/19 04:57:27;;;;;;;21.90;15.50;;;;;;;37.04;44.19;100920.84;5093920;28;20511;-69
2022/04/19 04:59:54;;;;;;;26.60;14.80;;;;;;;37.04;44.18;100924.34;5093702;28;20420;-71
2022/04/19 05:02:23;;;;;;;33.40;15.77;;;;;;;37.00;44.43;100928.75;5094331;28;20401;-71
2022/04/19 05:04:49;;;;;;;20.90;13.90;;;;;;;36.98;44.84;100936.38;5093572;28;20420;-71
2022/04/19 05:07:17;;;;;;;27.97;17.07;;;;;;;36.97;44.52;100934.75;5093618;28;20478;-71
2022/04/19 05:09:43;;;;;;;25.23;12.77;;;;;;;37.05;45.03;100933.28;5094797;28;20793;-69
2022/04/19 05:12:09;;;;;;;21.63;12.50;;;;;;;37.08;44.45;100935.38;5092799;28;20415;-69
2022/04/19 05:14:35;;;;;;;44.57;15.13;;;;;;;37.09;44.70;100924.25;5093366;28;20839;-70
2022/04/19 05:17:01;;;;;;;28.83;16.03;;;;;;;37.00;44.88;100927.94;5076561;28;20417;-69
2022/04/19 05:19:27;;;;;;;21.63;15.37;;;;;;;37.17;44.57;100930.88;5093365;28;20412;-68
2022/04/19 05:21:53;;;;;;;22.10;13.20;;;;;;;37.15;44.67;100933.09;5094628;28;20459;-69
2022/04/19 05:24:19;;;;;;;23.47;13.90;;;;;;;37.10;45.24;100925.88;5093295;28;20413;-69
2022/04/19 05:26:46;;;;;;;23.37;15.40;;;;;;;36.97;45.74;100934.75;5093175;28;20474;-69
2022/04/19 05:29:12;;;;;;;24.00;14.70;;;;;;;36.92;45.68;100934.06;5093075;28;20495;-69
2022/04/19 05:31:38;;;;;;;27.67;15.77;;;;;;;36.79;45.96;100925.59;5093069;28;20425;-70
2022/04/19 05:34:04;;;;;;;25.57;14.90;;;;;;;36.97;45.11;100932.06;5075931;28;20468;-69
2022/04/19 05:36:30;;;;;;;35.80;17.73;;;;;;;36.92;45.33;100934.84;5093708;28;20494;-69
2022/04/19 05:38:57;;;;;;;27.80;15.47;;;;;;;37.10;44.97;100933.19;5076015;28;20964;-70
2022/04/19 05:41:23;;;;;;;27.43;16.00;;;;;;;37.13;45.27;100941.47;5092858;28;20413;-69
2022/04/19 05:43:49;;;;;;;26.90;16.13;;;;;;;37.00;45.25;100944.97;5092928;28;20520;-69
2022/04/19 05:46:17;;;;;;;28.77;15.03;;;;;;;36.96;45.89;100938.56;5094059;28;20794;-69
2022/04/19 05:48:47;;;;;;;29.27;15.47;;;;;;;37.04;45.33;100954.09;5092853;28;20877;-69
2022/04/19 05:51:13;;;;;;;27.20;16.63;;;;;;;37.02;45.66;100950.91;5092734;28;20519;-71
2022/04/19 05:53:40;;;;;;;20.70;12.47;;;;;;;37.00;45.50;100946.88;5092407;28;20491;-70
2022/04/19 05:56:06;;;;;;;31.17;16.27;;;;;;;36.85;45.86;100950.63;5075772;28;20421;-75
2022/04/19 05:58:32;;;;;;;24.20;15.00;;;;;;;36.88;46.20;100960.88;5092509;28;20505;-71
2022/04/19 06:00:58;;;;;;;20.50;12.10;;;;;;;37.02;45.57;100956.31;5092358;28;20446;-71
2022/04/19 06:06:09;;;;;;;20.90;11.93;;;;;;;36.98;45.81;100959.91;5092469;28;20958;-72
2022/04/19 06:08:35;;;;;;;20.93;13.17;;;;;;;37.08;45.34;100976.75;5062956;28;20429;-70
2022/04/19 06:11:01;;;;;;;25.53;13.23;;;;;;;37.17;45.37;100978.75;5074983;28;20436;-69
2022/04/19 06:13:27;;;;;;;24.10;12.93;;;;;;;37.10;45.94;100984.56;5091961;28;20452;-70
2022/04/19 06:15:54;;;;;;;20.57;11.30;;;;;;;37.08;45.41;100978.66;5091764;28;20956;-70
2022/04/19 06:18:20;;;;;;;24.70;9.97;;;;;;;37.12;44.89;100983.16;5091520;28;20881;-73
2022/04/19 06:20:46;;;;;;;26.03;11.80;;;;;;;37.13;45.64;100979.34;5092824;28;20942;-71
2022/04/19 06:23:12;;;;;;;16.53;10.10;;;;;;;37.10;45.64;100985.38;5089603;28;20416;-71
2022/04/19 06:25:38;;;;;;;19.37;11.13;;;;;;;37.15;45.32;100989.09;5090168;28;20409;-68
2022/04/19 06:28:04;;;;;;;21.03;10.33;;;;;;;37.21;45.48;100985.19;5090408;28;20833;-71
2022/04/19 06:30:30;;;;;;;22.07;9.97;;;;;;;37.23;45.34;100993.81;5073562;28;20535;-70
2022/04/19 06:32:56;;;;;;;20.43;10.60;;;;;;;37.28;44.94;100996.41;5073705;28;20511;-70
2022/04/19 06:35:22;;;;;;;17.70;10.00;;;;;;;37.32;44.78;101000.94;5073373;28;20841;-73
2022/04/19 06:37:48;;;;;;;19.33;8.77;;;;;;;37.23;44.82;101005.44;5090906;28;20947;-69
2022/04/19 06:40:14;;;;;;;23.27;10.70;;;;;;;37.11;45.27;101008.59;5091652;28;20464;-71
2022/04/19 06:42:42;;;;;;;19.83;9.20;;;;;;;37.24;44.81;101011.63;5091620;28;20425;-69
2022/04/19 06:45:10;;;;;;;21.60;10.83;;;;;;;37.29;44.59;101019.66;5091483;28;20473;-69
2022/04/19 06:47:36;;;;;;;22.20;9.53;;;;;;;37.33;44.63;101020.69;5091549;28;20424;-71
2022/04/19 06:50:03;;;;;;;16.23;8.73;;;;;;;37.25;44.33;101026.75;5091406;28;20445;-71
2022/04/19 06:52:29;;;;;;;21.10;10.13;;;;;;;37.31;44.61;101029.06;5092570;28;20751;-71
2022/04/19 06:54:56;;;;;;;12.93;9.20;;;;;;;37.41;44.40;101038.97;5089752;28;20888;-69
2022/04/19 06:57:22;;;;;;;15.50;9.10;;;;;;;37.43;44.31;101041.34;5090886;28;20477;-69
2022/04/19 06:59:48;;;;;;;15.03;8.10;;;;;;;37.41;44.70;101051.69;5090372;28;20416;-69
2022/04/19 07:02:14;;;;;;;15.77;8.87;;;;;;;37.46;44.59;101051.59;5090874;28;20512;-69
2022/04/19 07:04:41;;;;;;;21.37;8.30;;;;;;;37.37;44.80;101065.78;5090618;28;20504;-70
2022/04/19 07:07:08;;;;;;;16.70;8.87;;;;;;;37.48;44.23;101071.84;5091873;28;20405;-69
2022/04/19 07:09:34;;;;;;;17.30;7.80;;;;;;;37.46;44.51;101076.75;5090697;28;20425;-69
2022/04/19 07:12:01;;;;;;;16.60;8.03;;;;;;;37.40;44.43;101079.84;5090150;28;20471;-70
2022/04/19 07:14:27;;;;;;;16.80;8.83;;;;;;;37.45;45.11;101080.56;5090163;28;20842;-71
2022/04/19 07:16:53;;;;;;;19.30;11.83;;;;;;;37.38;44.87;101085.53;5090643;28;20421;-71
2022/04/19 07:19:19;;;;;;;48.67;39.43;;;;;;;37.29;45.36;101088.09;5090399;28;20945;-69
2022/04/19 07:27:14;;;;;;;60.43;45.00;;;;;;;36.95;46.20;101093.75;5090727;28;20396;-71
2022/04/19 07:29:40;;;;;;;53.87;43.67;;;;;;;36.96;46.19;101098.09;5091652;28;20412;-69
2022/04/19 07:32:07;;;;;;;59.00;43.90;;;;;;;37.05;46.51;101109.84;5090207;28;20417;-69
2022/04/19 07:34:33;;;;;;;53.23;42.00;;;;;;;37.18;45.74;101107.50;5089790;28;20559;-69
2022/04/19 07:36:59;;;;;;;66.60;46.87;;;;;;;37.16;45.98;101115.91;5090154;28;20797;-70
2022/04/19 07:39:26;;;;;;;73.13;52.00;;;;;;;37.18;45.96;101123.72;5090120;28;20495;-68
2022/04/19 07:41:55;;;;;;;61.27;48.10;;;;;;;37.10;46.23;101133.31;5091529;28;20454;-68
2022/04/19 07:44:22;;;;;;;63.57;46.43;;;;;;;37.09;46.50;101129.00;5088725;28;20425;-71
2022/04/19 07:46:50;;;;;;;56.27;49.67;;;;;;;37.12;46.48;101134.63;5090242;28;20469;-69
2022/04/19 07:49:16;;;;;;;63.53;47.77;;;;;;;37.16;46.09;101137.56;5089965;28;20441;-68
2022/04/19 07:51:43;;;;;;;73.90;55.53;;;;;;;37.02;46.28;101142.09;5089987;28;20413;-69
2022/04/19 07:54:09;;;;;;;66.20;52.73;;;;;;;37.03;46.82;101141.81;5089746;28;20516;-70
2022/04/19 07:56:36;;;;;;;63.27;50.80;;;;;;;37.09;46.30;101147.94;5072810;28;20464;-69
2022/04/19 07:59:03;;;;;;;63.20;49.30;;;;;;;37.18;46.17;101148.88;5089366;28;20514;-68
2022/04/19 08:01:29;;;;;;;56.20;49.30;;;;;;;37.15;46.17;101149.47;5089139;28;20413;-68
2022/04/19 08:03:55;;;;;;;49.63;41.43;;;;;;;37.18;46.47;101148.06;5089169;28;20409;-71
2022/04/19 08:06:22;;;;;;;57.17;41.80;;;;;;;37.20;46.48;101154.81;5089354;28;20463;-69
2022/04/19 08:08:48;;;;;;;52.47;40.63;;;;;;;37.30;46.04;101156.53;5089046;28;20408;-69
2022/04/19 08:11:14;;;;;;;48.23;38.73;;;;;;;37.32;45.93;101151.63;5089049;28;20436;-70
2022/04/19 08:13:40;;;;;;;49.20;33.37;;;;;;;37.41;45.77;101152.59;5089706;28;20991;-71
2022/04/19 08:16:06;;;;;;;47.33;34.90;;;;;;;37.48;45.94;101166.56;5090270;28;20424;-71
2022/04/19 08:18:32;;;;;;;30.60;21.53;;;;;;;37.56;45.84;101160.44;5090302;28;21018;-69
2022/04/19 08:20:58;;;;;;;22.83;13.10;;;;;;;37.62;44.84;101158.47;5090446;28;20933;-69
2022/04/19 08:23:24;;;;;;;19.90;12.90;;;;;;;37.49;45.86;101159.22;5090503;28;20464;-69
2022/04/19 08:25:50;;;;;;;23.23;9.97;;;;;;;37.47;45.29;101167.66;5090361;28;20451;-70
2022/04/19 08:28:16;;;;;;;14.70;9.63;;;;;;;37.56;45.35;101165.06;5091557;28;20412;-70
2022/04/19 08:30:42;;;;;;;20.50;14.00;;;;;;;37.62;44.99;101172.00;5090334;28;20423;-74
2022/04/19 08:33:08;;;;;;;18.60;10.33;;;;;;;37.75;44.56;101173.13;5090626;28;20601;-69
2022/04/19 08:35:34;;;;;;;18.43;10.07;;;;;;;37.62;44.97;101170.09;5090168;28;20456;-70
2022/04/19 08:38:00;;;;;;;21.77;14.27;;;;;;;37.74;44.93;101176.94;5090133;28;20535;-70
2022/04/19 08:40:26;;;;;;;21.83;13.50;;;;;;;37.76;44.83;101175.56;5090142;28;20420;-70
2022/04/19 08:42:56;;;;;;;16.70;11.13;;;;;;;37.76;44.49;101175.56;5090302;28;20413;-70
2022/04/19 08:45:23;;;;;;;17.80;10.67;;;;;;;37.76;44.92;101177.47;5090096;28;21021;-72
2022/04/19 08:47:50;;;;;;;22.00;9.80;;;;;;;37.80;44.12;101175.75;5092567;28;20960;-72
2022/04/19 08:50:18;;;;;;;13.43;9.53;;;;;;;37.78;44.43;101167.94;5093849;28;20431;-70
2022/04/19 08:52:45;;;;;;;13.10;10.40;;;;;;;37.77;44.51;101181.78;5094108;28;20436;-70
2022/04/19 08:57:58;;;;;;;16.70;9.57;;;;;;;37.97;44.15;101180.63;5095356;28;20936;-70
2022/04/19 09:00:25;;;;;;;13.30;8.97;;;;;;;37.93;44.37;101166.88;5093630;28;20963;-72
2022/04/19 09:02:53;;;;;;;15.23;8.20;;;;;;;37.94;44.68;101176.63;5076850;28;20562;-71
2022/04/19 09:05:26;;;;;;;18.40;8.70;;;;;;;37.84;45.00;101169.50;5076756;28;20424;-70
2022/04/19 09:07:59;;;;;;;23.20;11.53;;;;;;;37.76;45.13;101178.28;5093320;28;20455;-72
2022/04/19 09:10:34;;;;;;;18.10;10.43;;;;;;;37.90;44.72;101165.59;5093526;28;20777;-70
2022/04/19 09:13:09;;;;;;;17.93;9.43;;;;;;;37.84;44.91;101172.19;5093683;28;20396;-70
2022/04/19 09:15:43;;;;;;;17.60;8.57;;;;;;;37.95;43.81;101175.53;5094716;28;20518;-70
2022/04/19 09:18:24;;;;;;;9.07;7.03;;;;;;;37.92;44.12;101173.41;5093320;28;20524;-70
2022/04/19 09:20:52;;;;;;;10.23;7.33;;;;;;;37.91;44.21;101169.09;5093266;28;20446;-70
2022/04/19 09:23:19;;;;;;;12.63;8.37;;;;;;;38.05;43.79;101166.41;5093181;28;20413;-73
2022/04/19 09:25:45;;;;;;;12.93;8.47;;;;;;;38.15;43.47;101172.44;5093263;28;20913;-72
2022/04/19 09:28:20;;;;;;;15.00;6.57;;;;;;;37.87;44.34;101166.16;5094460;28;20401;-75
2022/04/19 09:30:51;;;;;;;8.50;6.33;;;;;;;38.04;43.99;101170.22;5093186;28;20838;-72
2022/04/19 09:33:21;;;;;;;18.90;8.23;;;;;;;38.12;44.09;101175.75;5092984;28;20421;-70
2022/04/19 09:35:54;;;;;;;14.50;6.73;;;;;;;38.20;43.87;101176.16;5093048;28;20935;-71
2022/04/19 09:38:42;;;;;;;11.90;6.50;;;;;;;38.01;43.69;101173.53;5094344;28;20889;-72
2022/04/19 09:41:35;;;;;;;8.60;5.20;;;;;;;38.10;43.68;101169.81;5094311;28;20482;-72
2022/04/19 09:44:06;;;;;;;7.70;3.57;;;;;;;38.02;43.21;101184.06;5088993;28;20429;-71
2022/04/19 09:46:32;;;;;;;8.33;3.47;;;;;;;38.20;43.00;101192.41;5094096;28;20401;-72
2022/04/19 09:48:58;;;;;;;6.50;3.83;;;;;;;38.16;42.78;101190.28;5092826;28;20408;-69
2022/04/19 09:51:31;;;;;;;15.83;5.50;;;;;;;38.20;43.11;101190.50;5075977;28;20417;-70
2022/04/19 09:53:57;;;;;;;5.80;3.40;;;;;;;38.25;42.96;101192.31;5092376;28;20897;-70
2022/04/19 09:59:46;;;;;;;9.73;4.07;;;;;;;38.41;42.42;101199.84;5093728;28;20376;-72
2022/04/19 10:10:29;;;;;;;11.70;5.50;;;;;;;38.37;42.32;101196.16;5092972;28;20453;-71
2022/04/19 10:12:58;;;;;;;10.40;4.27;;;;;;;38.30;42.43;101197.66;5075581;28;20490;-69
2022/04/19 10:15:24;;;;;;;10.70;4.43;;;;;;;38.37;42.64;101198.06;5075393;28;20465;-70
2022/04/19 10:17:51;;;;;;;12.73;4.00;;;;;;;38.36;42.80;101188.31;5075459;28;20463;-71
2022/04/19 10:20:31;;;;;;;10.67;6.30;;;;;;;38.35;42.97;101198.34;5092174;28;20421;-69
2022/04/19 10:23:03;;;;;;;11.03;5.70;;;;;;;38.41;42.74;101196.34;5092063;28;20534;-69
2022/04/19 10:25:46;;;;;;;8.60;5.17;;;;;;;38.47;42.82;101194.34;5059112;28;20428;-71
2022/04/19 10:28:15;;;;;;;10.13;5.07;;;;;;;38.43;42.53;101186.84;5092033;28;20462;-71
2022/04/19 10:30:52;;;;;;;7.33;4.23;;;;;;;38.43;42.58;101178.69;5093255;28;20401;-71
2022/04/19 10:33:40;;;;;;;9.00;4.90;;;;;;;38.48;42.22;101180.47;5091694;28;20834;-71
2022/04/19 10:36:10;;;;;;;7.43;4.47;;;;;;;38.55;42.01;101169.22;5091881;28;20474;-71
2022/04/19 10:38:37;;;;;;;7.13;3.93;;;;;;;38.53;41.75;101168.75;5074984;28;20437;-71
2022/04/19 10:41:03;;;;;;;9.13;4.10;;;;;;;38.46;41.80;101171.06;5074931;28;20857;-69
2022/04/19 10:43:32;;;;;;;7.10;3.27;;;;;;;38.36;42.26;101172.84;5091610;28;20444;-69
2022/04/19 10:46:19;;;;;;;10.37;3.83;;;;;;;38.47;42.10;101172.66;5091611;28;20440;-69
2022/04/19 10:49:24;;;;;;;6.90;4.07;;;;;;;38.48;42.51;101176.97;5092907;28;20894;-69
2022/04/19 10:51:59;;;;;;;8.80;4.00;;;;;;;38.47;42.14;101173.47;5091494;28;20417;-69
2022/04/19 10:55:11;;;;;;;6.53;3.83;;;;;;;38.56;42.50;101166.25;5091299;28;20495;-70
2022/04/19 11:00:34;;;;;;;7.93;4.10;;;;;;;38.61;42.72;101157.16;5072451;28;20799;-71
2022/04/19 11:03:26;;;;;;;11.10;4.00;;;;;;;38.64;42.44;101165.50;5071097;28;20421;-71
2022/04/19 11:05:57;;;;;;;9.90;4.50;;;;;;;38.57;42.23;101165.13;5070833;28;20442;-71
2022/04/19 11:08:26;;;;;;;6.27;2.73;;;;;;;38.58;42.65;101158.59;5074263;28;20935;-69
2022/04/19 11:11:21;;;;;;;6.40;3.83;;;;;;;38.53;43.07;101161.41;5090180;28;20777;-70
2022/04/19 11:14:15;;;;;;;7.70;3.50;;;;;;;38.59;42.43;101159.38;5091835;28;20521;-72
2022/04/19 11:16:41;;;;;;;9.57;4.23;;;;;;;38.66;42.27;101154.34;5080307;28;20413;-72
2022/04/19 11:19:25;;;;;;;6.63;4.30;;;;;;;38.61;42.41;101158.00;5092112;28;20714;-70
2022/04/19 11:22:01;;;;;;;8.97;4.03;;;;;;;38.71;42.07;101156.97;5074507;28;20417;-70
2022/04/19 11:25:06;;;;;;;10.73;3.60;;;;;;;38.76;42.17;101156.09;5090943;28;20499;-70
2022/04/19 11:27:54;;;;;;;8.70;4.93;;;;;;;38.74;42.68;101161.03;5074215;28;20458;-70
2022/04/19 11:30:21;;;;;;;6.03;2.53;;;;;;;38.71;42.09;101151.53;5092216;28;20389;-70
2022/04/19 11:32:58;;;;;;;7.07;3.60;;;;;;;38.73;42.19;101152.06;5090584;28;20794;-69
2022/04/19 11:35:26;;;;;;;6.20;2.97;;;;;;;38.74;42.23;101145.56;5071797;28;20532;-70
2022/04/19 11:37:52;;;;;;;10.67;3.20;;;;;;;38.69;42.66;101142.91;5071994;28;20401;-69
2022/04/19 11:48:47;;;;;;;7.20;3.20;;;;;;;38.79;41.52;101121.00;5090789;28;20435;-70
2022/04/19 11:51:16;;;;;;;6.20;3.17;;;;;;;38.85;41.83;101122.50;5089264;28;21055;-69
2022/04/19 11:53:45;;;;;;;6.20;3.70;;;;;;;38.86;41.88;101116.00;5089888;28;20545;-70
2022/04/19 11:56:11;;;;;;;6.53;3.60;;;;;;;38.87;41.66;101112.16;5089987;28;20443;-69
2022/04/19 11:58:41;;;;;;;6.57;4.27;;;;;;;38.92;41.97;101105.81;5090006;28;20503;-69
2022/04/19 12:01:09;;;;;;;9.90;4.37;;;;;;;38.98;41.62;101101.88;5089174;28;20417;-69
2022/04/19 12:03:38;;;;;;;6.70;3.80;;;;;;;38.93;41.90;101110.13;5089723;28;20427;-69